createdAt,value
2024-05-09T00:00:22.514Z,10.5494
2024-05-09T00:01:18.931Z,10.5729
2024-05-09T00:02:19.790Z,10.5995
2024-05-09T00:03:22.305Z,10.6217
2024-05-09T00:04:22.234Z,10.6619
2024-05-09T00:05:24.431Z,10.6468
2024-05-09T00:06:24.375Z,10.6097
2024-05-09T00:07:26.423Z,10.6092
2024-05-09T00:08:28.827Z,10.5851
2024-05-09T00:09:31.022Z,10.6075
2024-05-09T00:10:36.970Z,10.6265
2024-05-09T00:11:34.145Z,10.6337
2024-05-09T00:12:36.326Z,10.6739
2024-05-09T00:13:38.506Z,10.6687
2024-05-09T00:14:40.748Z,10.6532
2024-05-09T00:15:42.905Z,10.6467
2024-05-09T00:16:45.086Z,10.6526
2024-05-09T00:17:47.417Z,10.6249
2024-05-09T00:18:47.467Z,10.6398
2024-05-09T00:19:48.991Z,10.6500
2024-05-09T00:20:49.789Z,10.6646
2024-05-09T00:21:49.574Z,10.6615
2024-05-09T00:22:51.776Z,10.6368
2024-05-09T00:23:52.351Z,10.6398
2024-05-09T00:24:53.238Z,10.5890
2024-05-09T00:25:55.427Z,10.5932
2024-05-09T00:26:57.629Z,10.5684
2024-05-09T00:27:59.820Z,10.5629
2024-05-09T00:29:02.219Z,10.5523
2024-05-09T00:30:04.207Z,10.5441
2024-05-09T00:31:04.175Z,10.5364
2024-05-09T00:32:06.414Z,10.5142
2024-05-09T00:33:07.859Z,10.5230
2024-05-09T00:34:07.094Z,10.5068
2024-05-09T00:35:07.055Z,10.5177
2024-05-09T00:36:09.346Z,10.5134
2024-05-09T00:37:11.553Z,10.5055
2024-05-09T00:38:13.780Z,10.4779
2024-05-09T00:39:15.987Z,10.4699
2024-05-09T00:40:26.568Z,10.4698
2024-05-09T00:41:19.928Z,10.4086
2024-05-09T00:42:19.844Z,10.4233
2024-05-09T00:43:22.070Z,10.4271
2024-05-09T00:44:24.518Z,10.4267
2024-05-09T00:45:24.503Z,10.4415
2024-05-09T00:46:24.487Z,10.4438
2024-05-09T00:47:26.886Z,10.4497
2024-05-09T00:48:27.188Z,10.4534
2024-05-09T00:49:28.520Z,10.4637
2024-05-09T00:50:35.230Z,10.4925
2024-05-09T00:51:29.411Z,10.5031
2024-05-09T00:52:31.612Z,10.5109
2024-05-09T00:53:33.950Z,10.5366
2024-05-09T00:54:33.938Z,10.5599
2024-05-09T00:55:36.150Z,10.5612
2024-05-09T00:56:36.283Z,10.5731
2024-05-09T00:57:38.580Z,10.5945
2024-05-09T00:58:40.800Z,10.6063
2024-05-09T00:59:43.018Z,10.6166
2024-05-09T01:00:45.422Z,10.6297
2024-05-09T01:01:48.407Z,10.6599
2024-05-09T01:02:48.357Z,10.6787
2024-05-09T01:03:51.672Z,10.6820
2024-05-09T01:04:51.996Z,10.6993
2024-05-09T01:05:52.032Z,10.7054
2024-05-09T01:06:52.006Z,10.7242
2024-05-09T01:07:54.158Z,10.7485
2024-05-09T01:08:56.437Z,10.7633
2024-05-09T01:09:58.776Z,10.7792
2024-05-09T01:11:01.386Z,10.8038
2024-05-09T01:12:02.523Z,10.8223
2024-05-09T01:13:02.868Z,10.8444
2024-05-09T01:14:05.202Z,10.8585
2024-05-09T01:15:07.521Z,10.8549
2024-05-09T01:16:12.821Z,10.8838
2024-05-09T01:17:11.307Z,10.8881
2024-05-09T01:18:12.477Z,10.9076
2024-05-09T01:19:13.789Z,10.9024
2024-05-09T01:20:20.052Z,10.9251
2024-05-09T01:21:14.968Z,10.9358
2024-05-09T01:22:14.927Z,10.9167
2024-05-09T01:23:17.224Z,10.9175
2024-05-09T01:24:17.926Z,10.9425
2024-05-09T01:25:20.265Z,10.9603
2024-05-09T01:26:22.387Z,10.9452
2024-05-09T01:27:24.724Z,10.9672
2024-05-09T01:28:26.792Z,10.9546
2024-05-09T01:29:29.166Z,10.9397
2024-05-09T01:30:35.111Z,10.9394
2024-05-09T01:31:32.222Z,10.9231
2024-05-09T01:32:34.649Z,10.9301
2024-05-09T01:33:34.724Z,10.9495
2024-05-09T01:34:34.622Z,10.9228
2024-05-09T01:35:36.962Z,10.9297
2024-05-09T01:36:36.766Z,10.9363
2024-05-09T01:37:39.857Z,10.9579
2024-05-09T01:38:39.624Z,10.9648
2024-05-09T01:39:41.704Z,10.9508
2024-05-09T01:40:43.937Z,10.9562
2024-05-09T01:41:46.181Z,10.9535
2024-05-09T01:42:48.429Z,10.9385
2024-05-09T01:43:50.604Z,10.9414
2024-05-09T01:44:52.760Z,10.9538
2024-05-09T01:45:54.926Z,10.9599
2024-05-09T01:46:57.247Z,10.9631
2024-05-09T01:47:59.741Z,10.9726
2024-05-09T01:48:59.833Z,10.9843
2024-05-09T01:49:59.745Z,10.9839
2024-05-09T01:51:01.949Z,10.9855
2024-05-09T01:52:01.936Z,10.9749
2024-05-09T01:53:04.161Z,10.9834
2024-05-09T01:54:06.464Z,10.9813
2024-05-09T01:55:08.554Z,10.9815
2024-05-09T01:56:10.795Z,10.9869
2024-05-09T01:57:12.847Z,10.9809
2024-05-09T01:58:15.110Z,11.0046
2024-05-09T01:59:17.252Z,10.9940
2024-05-09T02:00:30.157Z,10.9995
2024-05-09T02:01:20.303Z,11.0180
2024-05-09T02:02:22.627Z,11.0047
2024-05-09T02:03:25.038Z,11.0004
2024-05-09T02:04:25.051Z,11.0116
2024-05-09T02:05:25.029Z,11.0142
2024-05-09T02:06:27.099Z,11.0089
2024-05-09T02:07:29.190Z,10.9950
2024-05-09T02:08:31.490Z,11.0029
2024-05-09T02:09:31.533Z,11.0223
2024-05-09T02:10:33.875Z,11.0277
2024-05-09T02:11:33.996Z,11.0258
2024-05-09T02:12:33.877Z,11.0075
2024-05-09T02:13:33.740Z,11.0155
2024-05-09T02:14:36.054Z,11.0220
2024-05-09T02:15:37.022Z,11.0425
2024-05-09T02:16:39.374Z,11.0727
2024-05-09T02:17:40.511Z,11.0770
2024-05-09T02:18:40.586Z,11.0900
2024-05-09T02:19:41.430Z,11.0909
2024-05-09T02:20:44.148Z,11.1040
2024-05-09T02:21:44.121Z,11.1033
2024-05-09T02:22:46.386Z,11.1186
2024-05-09T02:23:46.372Z,11.1182
2024-05-09T02:24:48.540Z,11.1283
2024-05-09T02:25:50.738Z,11.1360
2024-05-09T02:26:52.888Z,11.1439
2024-05-09T02:27:55.056Z,11.1558
2024-05-09T02:28:57.323Z,11.1431
2024-05-09T02:29:59.492Z,11.1272
2024-05-09T02:31:01.698Z,11.1406
2024-05-09T02:32:02.977Z,11.1382
2024-05-09T02:33:03.463Z,11.1268
2024-05-09T02:34:03.420Z,11.1384
2024-05-09T02:35:03.423Z,11.1423
2024-05-09T02:36:03.365Z,11.1499
2024-05-09T02:37:05.734Z,11.1473
2024-05-09T02:38:06.692Z,11.1524
2024-05-09T02:39:06.756Z,11.1698
2024-05-09T02:40:14.273Z,11.1629
2024-05-09T02:41:10.083Z,11.1506
2024-05-09T02:42:12.333Z,11.1592
2024-05-09T02:43:14.566Z,11.1721
2024-05-09T02:44:16.896Z,11.1520
2024-05-09T02:45:16.807Z,11.1881
2024-05-09T02:46:19.172Z,11.1874
2024-05-09T02:47:21.757Z,11.1775
2024-05-09T02:48:21.821Z,11.1771
2024-05-09T02:49:24.221Z,11.1780
2024-05-09T02:50:33.060Z,11.1629
2024-05-09T02:51:26.870Z,11.1728
2024-05-09T02:52:27.293Z,11.1796
2024-05-09T02:53:27.157Z,11.1687
2024-05-09T02:54:29.323Z,11.1827
2024-05-09T02:55:31.605Z,11.1763
2024-05-09T02:56:34.045Z,11.1652
2024-05-09T02:57:36.174Z,11.1659
2024-05-09T02:58:38.440Z,11.1316
2024-05-09T02:59:40.730Z,11.1328
2024-05-09T03:00:42.831Z,11.1248
2024-05-09T03:01:42.492Z,11.1117
2024-05-09T03:02:42.735Z,11.1175
2024-05-09T03:03:42.730Z,11.1107
2024-05-09T03:04:42.759Z,11.1152
2024-05-09T03:05:45.394Z,11.1035
2024-05-09T03:06:45.457Z,11.1042
2024-05-09T03:07:46.409Z,11.1102
2024-05-09T03:08:46.270Z,11.1250
2024-05-09T03:09:48.389Z,11.1083
2024-05-09T03:10:50.584Z,11.1095
2024-05-09T03:11:52.981Z,11.1164
2024-05-09T03:12:52.928Z,11.1197
2024-05-09T03:13:55.099Z,11.1181
2024-05-09T03:14:57.200Z,11.1283
2024-05-09T03:15:59.537Z,11.1410
2024-05-09T03:17:01.915Z,11.1445
2024-05-09T03:18:02.142Z,11.1213
2024-05-09T03:19:02.465Z,11.1089
2024-05-09T03:20:05.110Z,11.1123
2024-05-09T03:21:04.355Z,11.1084
2024-05-09T03:22:06.660Z,11.1055
2024-05-09T03:23:06.795Z,11.0998
2024-05-09T03:24:09.167Z,11.0902
2024-05-09T03:25:11.351Z,11.0738
2024-05-09T03:26:13.665Z,11.0718
2024-05-09T03:27:15.908Z,11.0707
2024-05-09T03:28:15.763Z,11.0727
2024-05-09T03:29:18.078Z,11.0780
2024-05-09T03:30:29.289Z,11.0827
2024-05-09T03:31:18.947Z,11.0653
2024-05-09T03:32:21.488Z,11.0723
2024-05-09T03:33:21.835Z,11.0815
2024-05-09T03:34:22.058Z,11.0678
2024-05-09T03:35:25.005Z,11.0677
2024-05-09T03:36:24.993Z,11.0568
2024-05-09T03:37:25.464Z,11.0545
2024-05-09T03:38:26.242Z,11.0480
2024-05-09T03:39:28.530Z,11.0502
2024-05-09T03:40:31.401Z,11.0386
2024-05-09T03:41:31.480Z,11.0597
2024-05-09T03:42:31.932Z,11.0520
2024-05-09T03:43:31.822Z,11.0523
2024-05-09T03:44:34.217Z,11.0499
2024-05-09T03:45:34.191Z,11.0430
2024-05-09T03:46:36.417Z,11.0480
2024-05-09T03:47:38.848Z,11.0587
2024-05-09T03:48:38.968Z,11.0457
2024-05-09T03:49:41.206Z,11.0391
2024-05-09T03:50:43.610Z,11.0277
2024-05-09T03:51:44.082Z,11.0351
2024-05-09T03:52:44.024Z,11.0403
2024-05-09T03:53:44.273Z,11.0103
2024-05-09T03:54:46.434Z,11.0219
2024-05-09T03:55:48.620Z,11.0272
2024-05-09T03:56:50.938Z,11.0370
2024-05-09T03:57:53.271Z,11.0386
2024-05-09T03:58:55.592Z,11.0520
2024-05-09T03:59:57.744Z,11.0508
2024-05-09T04:01:00.963Z,11.0433
2024-05-09T04:02:01.995Z,11.0411
2024-05-09T04:03:02.330Z,11.0537
2024-05-09T04:04:02.510Z,11.0456
2024-05-09T04:05:04.893Z,11.0613
2024-05-09T04:06:05.411Z,11.0721
2024-05-09T04:07:05.273Z,11.0721
2024-05-09T04:08:07.710Z,11.0850
2024-05-09T04:09:07.639Z,11.0914
2024-05-09T04:10:16.994Z,11.0984
2024-05-09T04:11:10.992Z,11.1049
2024-05-09T04:12:12.023Z,11.1040
2024-05-09T04:13:13.015Z,11.1186
2024-05-09T04:14:15.293Z,11.1220
2024-05-09T04:15:15.580Z,11.1222
2024-05-09T04:16:17.755Z,11.1223
2024-05-09T04:17:20.595Z,11.1136
2024-05-09T04:18:22.442Z,11.0903
2024-05-09T04:19:24.640Z,11.0756
2024-05-09T04:20:33.909Z,11.1157
2024-05-09T04:21:25.563Z,11.0980
2024-05-09T04:22:27.718Z,11.1180
2024-05-09T04:23:30.009Z,11.1378
2024-05-09T04:24:29.998Z,11.1384
2024-05-09T04:25:32.275Z,11.1100
2024-05-09T04:26:34.627Z,11.1142
2024-05-09T04:27:37.832Z,11.1189
2024-05-09T04:28:37.707Z,11.1202
2024-05-09T04:29:40.028Z,11.1125
2024-05-09T04:30:42.684Z,11.1261
2024-05-09T04:31:43.022Z,11.1329
2024-05-09T04:32:45.427Z,11.1366
2024-05-09T04:33:46.732Z,11.1394
2024-05-09T04:34:46.752Z,11.1605
2024-05-09T04:35:48.999Z,11.1563
2024-05-09T04:36:51.180Z,11.1442
2024-05-09T04:37:51.469Z,11.1392
2024-05-09T04:38:53.677Z,11.1615
2024-05-09T04:39:55.920Z,11.1717
2024-05-09T04:40:58.103Z,11.1753
2024-05-09T04:42:00.293Z,11.1914
2024-05-09T04:43:02.382Z,11.2020
2024-05-09T04:44:04.548Z,11.1920
2024-05-09T04:45:06.692Z,11.2030
2024-05-09T04:46:08.902Z,11.2231
2024-05-09T04:47:11.986Z,11.2161
2024-05-09T04:48:12.177Z,11.2211
2024-05-09T04:49:12.106Z,11.2166
2024-05-09T04:50:21.182Z,11.2152
2024-05-09T04:51:15.381Z,11.2218
2024-05-09T04:52:18.376Z,11.2225
2024-05-09T04:53:18.428Z,11.2036
2024-05-09T04:54:26.209Z,11.2214
2024-05-09T04:55:19.449Z,11.2146
2024-05-09T04:56:21.644Z,11.2140
2024-05-09T04:57:23.880Z,11.1891
2024-05-09T04:58:25.980Z,11.2215
2024-05-09T04:59:28.328Z,11.2372
2024-05-09T05:00:35.035Z,11.2570
2024-05-09T05:01:29.292Z,11.2787
2024-05-09T05:02:31.616Z,11.2871
2024-05-09T05:03:34.036Z,11.2900
2024-05-09T05:04:33.998Z,11.2859
2024-05-09T05:05:36.266Z,11.3087
2024-05-09T05:06:38.544Z,11.3091
2024-05-09T05:07:40.648Z,11.3276
2024-05-09T05:08:42.863Z,11.3349
2024-05-09T05:09:45.024Z,11.3322
2024-05-09T05:10:47.945Z,11.3308
2024-05-09T05:11:49.572Z,11.2957
2024-05-09T05:12:51.521Z,11.3128
2024-05-09T05:13:52.475Z,11.3210
2024-05-09T05:14:54.957Z,11.3080
2024-05-09T05:15:54.860Z,11.3202
2024-05-09T05:16:55.772Z,11.3199
2024-05-09T05:17:55.884Z,11.3396
2024-05-09T05:18:56.130Z,11.3608
2024-05-09T05:19:57.250Z,11.3574
2024-05-09T05:20:57.397Z,11.3792
2024-05-09T05:21:57.448Z,11.3796
2024-05-09T05:22:58.256Z,11.4035
2024-05-09T05:24:00.560Z,11.4236
2024-05-09T05:25:02.877Z,11.4464
2024-05-09T05:26:03.305Z,11.4922
2024-05-09T05:27:04.240Z,11.5141
2024-05-09T05:28:06.568Z,11.5032
2024-05-09T05:29:08.905Z,11.5254
2024-05-09T05:30:17.628Z,11.5301
2024-05-09T05:31:13.097Z,11.5418
2024-05-09T05:32:13.194Z,11.5452
2024-05-09T05:33:13.582Z,11.5487
2024-05-09T05:34:14.123Z,11.5570
2024-05-09T05:35:16.401Z,11.5348
2024-05-09T05:36:16.346Z,11.5107
2024-05-09T05:37:18.505Z,11.5221
2024-05-09T05:38:24.827Z,11.5159
2024-05-09T05:39:21.866Z,11.5313
2024-05-09T05:40:32.356Z,11.5391
2024-05-09T05:41:25.452Z,11.5808
2024-05-09T05:42:25.753Z,11.6408
2024-05-09T05:43:28.035Z,11.6499
2024-05-09T05:44:30.432Z,11.6243
2024-05-09T05:45:30.358Z,11.6350
2024-05-09T05:46:32.683Z,11.6865
2024-05-09T05:47:35.218Z,11.6995
2024-05-09T05:48:35.331Z,11.7112
2024-05-09T05:49:37.820Z,11.7078
2024-05-09T05:50:38.779Z,11.6931
2024-05-09T05:51:38.954Z,11.6913
2024-05-09T05:52:41.245Z,11.6699
2024-05-09T05:53:42.288Z,11.6787
2024-05-09T05:54:42.282Z,11.6798
2024-05-09T05:55:44.718Z,11.6421
2024-05-09T05:56:44.996Z,11.6799
2024-05-09T05:57:45.135Z,11.6944
2024-05-09T05:58:47.378Z,11.6939
2024-05-09T05:59:49.677Z,11.7016
2024-05-09T06:00:52.413Z,11.6956
2024-05-09T06:01:52.365Z,11.6887
2024-05-09T06:02:52.462Z,11.6941
2024-05-09T06:03:53.484Z,11.6523
2024-05-09T06:04:54.046Z,11.6864
2024-05-09T06:05:54.120Z,11.6980
2024-05-09T06:06:56.353Z,11.6908
2024-05-09T06:07:58.698Z,11.7275
2024-05-09T06:08:58.982Z,11.7669
2024-05-09T06:10:01.280Z,11.7928
2024-05-09T06:11:03.751Z,11.8528
2024-05-09T06:12:03.831Z,11.8644
2024-05-09T06:13:05.365Z,11.8843
2024-05-09T06:14:05.282Z,11.8931
2024-05-09T06:15:07.649Z,11.9239
2024-05-09T06:16:09.959Z,11.9687
2024-05-09T06:17:12.399Z,11.9971
2024-05-09T06:18:13.014Z,12.0040
2024-05-09T06:19:13.218Z,12.0281
2024-05-09T06:20:20.560Z,12.0767
2024-05-09T06:21:15.482Z,12.1157
2024-05-09T06:22:15.960Z,12.1519
2024-05-09T06:23:18.214Z,12.2204
2024-05-09T06:24:18.598Z,12.2845
2024-05-09T06:25:20.839Z,12.2793
2024-05-09T06:26:23.223Z,12.2981
2024-05-09T06:27:23.963Z,12.4331
2024-05-09T06:28:23.788Z,12.4663
2024-05-09T06:29:26.144Z,12.5455
2024-05-09T06:30:34.902Z,12.6326
2024-05-09T06:31:27.010Z,12.7305
2024-05-09T06:32:29.321Z,12.7645
2024-05-09T06:33:29.585Z,12.8139
2024-05-09T06:34:29.783Z,12.9090
2024-05-09T06:35:29.858Z,12.9313
2024-05-09T06:36:30.402Z,12.9224
2024-05-09T06:37:30.303Z,13.0098
2024-05-09T06:38:32.591Z,13.0681
2024-05-09T06:39:32.543Z,13.1005
2024-05-09T06:40:38.323Z,13.1458
2024-05-09T06:41:35.849Z,13.1927
2024-05-09T06:42:38.070Z,13.1888
2024-05-09T06:43:40.131Z,13.2019
2024-05-09T06:44:42.291Z,13.2596
2024-05-09T06:45:44.481Z,13.2728
2024-05-09T06:46:46.868Z,13.2974
2024-05-09T06:47:46.954Z,13.3645
2024-05-09T06:48:50.503Z,13.4359
2024-05-09T06:49:50.623Z,13.4969
2024-05-09T06:50:50.726Z,13.6281
2024-05-09T06:51:50.751Z,13.8169
2024-05-09T06:52:52.915Z,13.9369
2024-05-09T06:53:55.067Z,13.6595
2024-05-09T06:54:57.356Z,13.5081
2024-05-09T06:55:59.630Z,13.5841
2024-05-09T06:57:01.932Z,13.5322
2024-05-09T06:58:03.993Z,13.0555
2024-05-09T06:59:06.325Z,13.1503
2024-05-09T07:00:15.466Z,13.3114
2024-05-09T07:01:09.600Z,13.4037
2024-05-09T07:02:09.635Z,13.4024
2024-05-09T07:03:10.078Z,13.3966
2024-05-09T07:04:11.303Z,13.4519
2024-05-09T07:05:11.627Z,13.4981
2024-05-09T07:06:11.656Z,13.5339
2024-05-09T07:07:14.045Z,13.5405
2024-05-09T07:08:16.554Z,13.5373
2024-05-09T07:09:16.789Z,13.3890
2024-05-09T07:10:22.143Z,13.3808
2024-05-09T07:11:18.025Z,13.3793
2024-05-09T07:12:19.090Z,13.3362
2024-05-09T07:13:19.107Z,13.2988
2024-05-09T07:14:21.552Z,13.1165
2024-05-09T07:15:21.795Z,13.1748
2024-05-09T07:16:21.800Z,13.2101
2024-05-09T07:17:24.240Z,13.2333
2024-05-09T07:18:24.504Z,13.2142
2024-05-09T07:19:25.012Z,13.1992
2024-05-09T07:20:32.491Z,13.1630
2024-05-09T07:21:26.093Z,13.1754
2024-05-09T07:22:25.976Z,13.2021
2024-05-09T07:23:26.044Z,13.2550
2024-05-09T07:24:26.042Z,13.2867
2024-05-09T07:25:28.369Z,13.3820
2024-05-09T07:26:28.329Z,13.4128
2024-05-09T07:27:29.916Z,13.4080
2024-05-09T07:28:30.073Z,13.6002
2024-05-09T07:29:34.714Z,13.6586
2024-05-09T07:30:34.765Z,13.6989
2024-05-09T07:31:35.162Z,13.7069
2024-05-09T07:32:37.567Z,13.7489
2024-05-09T07:33:38.570Z,13.8602
2024-05-09T07:34:38.634Z,13.8399
2024-05-09T07:35:38.839Z,13.8179
2024-05-09T07:36:39.886Z,13.7932
2024-05-09T07:37:42.215Z,13.8707
2024-05-09T07:38:42.242Z,13.9604
2024-05-09T07:39:42.552Z,13.9949
2024-05-09T07:40:42.575Z,14.0090
2024-05-09T07:41:44.912Z,14.0084
2024-05-09T07:42:44.995Z,13.8968
2024-05-09T07:43:47.329Z,13.8730
2024-05-09T07:44:49.573Z,13.8408
2024-05-09T07:45:54.468Z,13.8105
2024-05-09T07:48:13.727Z,13.8337
2024-05-09T07:50:34.746Z,13.8479
2024-05-09T07:53:22.002Z,13.8227
2024-05-09T07:54:01.395Z,13.8078
2024-05-09T07:55:02.035Z,13.7064
2024-05-09T07:56:02.171Z,13.7267
2024-05-09T07:57:03.385Z,13.7532
2024-05-09T07:58:03.485Z,13.8242
2024-05-09T07:59:05.812Z,13.9489
2024-05-09T08:00:06.680Z,13.8881
2024-05-09T08:01:07.043Z,13.9321
2024-05-09T08:02:07.086Z,13.9728
2024-05-09T08:03:07.013Z,14.0153
2024-05-09T08:04:09.274Z,13.7836
2024-05-09T08:05:09.388Z,13.3063
2024-05-09T08:06:10.390Z,13.5734
2024-05-09T08:07:12.697Z,13.6458
2024-05-09T08:08:14.997Z,13.8997
2024-05-09T08:09:21.013Z,13.9178
2024-05-09T08:10:22.107Z,13.7673
2024-05-09T08:11:18.310Z,13.5608
2024-05-09T08:12:20.612Z,13.5156
2024-05-09T08:13:23.135Z,13.7731
2024-05-09T08:14:23.196Z,13.9514
2024-05-09T08:15:25.486Z,14.0094
2024-05-09T08:16:25.578Z,14.0734
2024-05-09T08:17:25.569Z,14.1590
2024-05-09T08:18:27.990Z,14.2495
2024-05-09T08:19:28.085Z,14.3292
2024-05-09T08:20:33.720Z,14.4298
2024-05-09T08:21:31.482Z,14.4101
2024-05-09T08:22:32.439Z,14.3854
2024-05-09T08:23:34.700Z,14.3782
2024-05-09T08:24:36.984Z,14.2767
2024-05-09T08:25:39.196Z,14.1812
2024-05-09T08:26:41.466Z,14.1070
2024-05-09T08:27:42.555Z,14.1527
2024-05-09T08:28:42.416Z,14.1122
2024-05-09T08:29:44.713Z,14.1003
2024-05-09T08:30:44.840Z,14.0926
2024-05-09T08:31:45.839Z,14.1064
2024-05-09T08:32:48.353Z,14.1404
2024-05-09T08:33:48.668Z,14.1142
2024-05-09T08:34:48.721Z,14.2114
2024-05-09T08:35:50.024Z,14.2379
2024-05-09T08:36:52.376Z,14.2033
2024-05-09T08:37:53.069Z,14.1264
2024-05-09T08:38:53.062Z,14.1032
2024-05-09T08:39:53.204Z,14.0436
2024-05-09T08:40:55.593Z,14.1003
2024-05-09T08:41:55.650Z,14.1926
2024-05-09T08:42:57.874Z,14.1896
2024-05-09T08:44:00.121Z,14.2592
2024-05-09T08:45:02.303Z,14.2329
2024-05-09T08:46:02.393Z,14.3341
2024-05-09T08:47:02.981Z,14.3897
2024-05-09T08:48:05.421Z,14.6500
2024-05-09T08:49:06.058Z,14.4084
2024-05-09T08:50:08.570Z,14.7299
2024-05-09T08:51:06.583Z,14.7225
2024-05-09T08:52:07.546Z,14.7789
2024-05-09T08:53:07.856Z,14.9116
2024-05-09T08:54:07.937Z,15.0088
2024-05-09T08:55:10.363Z,15.0791
2024-05-09T08:56:10.502Z,15.1853
2024-05-09T08:57:12.721Z,15.2647
2024-05-09T08:58:15.353Z,15.3807
2024-05-09T08:59:16.168Z,15.3676
2024-05-09T09:00:29.049Z,15.3806
2024-05-09T09:01:19.702Z,15.3189
2024-05-09T09:02:21.293Z,15.3214
2024-05-09T09:03:21.850Z,15.3157
2024-05-09T09:04:24.259Z,15.2812
2024-05-09T09:05:24.426Z,15.2272
2024-05-09T09:06:24.357Z,15.1585
2024-05-09T09:07:26.784Z,15.1576
2024-05-09T09:08:27.683Z,15.0277
2024-05-09T09:09:27.996Z,14.9474
2024-05-09T09:10:32.360Z,14.8436
2024-05-09T09:11:30.827Z,14.8028
2024-05-09T09:12:33.107Z,14.7926
2024-05-09T09:13:35.350Z,14.6766
2024-05-09T09:14:37.596Z,14.5770
2024-05-09T09:15:37.664Z,14.3807
2024-05-09T09:16:39.938Z,14.4328
2024-05-09T09:17:42.387Z,14.5754
2024-05-09T09:18:42.644Z,14.6005
2024-05-09T09:19:42.584Z,14.7123
2024-05-09T09:20:45.005Z,14.8418
2024-05-09T09:21:45.060Z,14.8791
2024-05-09T09:22:45.122Z,14.9106
2024-05-09T09:23:47.527Z,14.9324
2024-05-09T09:24:49.724Z,14.9335
2024-05-09T09:25:50.863Z,14.9408
2024-05-09T09:26:51.713Z,15.0255
2024-05-09T09:27:53.991Z,15.0841
2024-05-09T09:28:54.037Z,15.2671
2024-05-09T09:29:56.322Z,15.5351
2024-05-09T09:30:56.238Z,15.6888
2024-05-09T09:31:58.466Z,15.9312
2024-05-09T09:33:01.009Z,16.1590
2024-05-09T09:34:01.283Z,16.2611
2024-05-09T09:35:01.395Z,16.1397
2024-05-09T09:36:01.531Z,16.0714
2024-05-09T09:37:03.823Z,15.9716
2024-05-09T09:38:03.823Z,15.9193
2024-05-09T09:39:06.062Z,15.9652
2024-05-09T09:40:08.949Z,15.8811
2024-05-09T09:41:08.895Z,15.7866
2024-05-09T09:42:09.804Z,15.7159
2024-05-09T09:43:12.212Z,15.7886
2024-05-09T09:44:12.279Z,15.7813
2024-05-09T09:45:14.632Z,15.8770
2024-05-09T09:46:17.121Z,15.9795
2024-05-09T09:47:17.373Z,16.0109
2024-05-09T09:48:19.748Z,16.0769
2024-05-09T09:49:21.538Z,16.2149
2024-05-09T09:50:27.706Z,16.1275
2024-05-09T09:51:22.620Z,16.0967
2024-05-09T09:52:23.028Z,16.0359
2024-05-09T09:53:22.931Z,16.0389
2024-05-09T09:54:25.231Z,16.0035
2024-05-09T09:55:26.062Z,16.0619
2024-05-09T09:56:25.959Z,16.2810
2024-05-09T09:57:26.221Z,16.4322
2024-05-09T09:58:28.563Z,16.7158
2024-05-09T09:59:28.524Z,16.8138
2024-05-09T10:00:33.290Z,17.1710
2024-05-09T10:01:31.911Z,17.2629
2024-05-09T10:02:32.172Z,17.3569
2024-05-09T10:03:32.342Z,17.0613
2024-05-09T10:04:33.417Z,17.1237
2024-05-09T10:05:33.717Z,17.3105
2024-05-09T10:06:33.755Z,17.2902
2024-05-09T10:07:35.924Z,17.3008
2024-05-09T10:08:38.038Z,17.3421
2024-05-09T10:09:40.283Z,17.5585
2024-05-09T10:10:42.690Z,17.8372
2024-05-09T10:12:44.854Z,18.3641
2024-05-09T10:13:47.071Z,18.4690
2024-05-09T10:14:49.367Z,18.4275
2024-05-09T10:15:52.146Z,18.5662
2024-05-09T10:16:52.295Z,18.5135
2024-05-09T10:17:54.712Z,18.3700
2024-05-09T10:18:54.822Z,18.3354
2024-05-09T10:19:54.864Z,18.2185
2024-05-09T10:20:54.932Z,18.0593
2024-05-09T10:21:57.258Z,18.1923
2024-05-09T10:22:57.328Z,18.1626
2024-05-09T10:23:57.645Z,18.1763
2024-05-09T10:25:01.505Z,18.4071
2024-05-09T10:26:03.790Z,18.6242
2024-05-09T10:27:03.616Z,18.6995
2024-05-09T10:28:04.135Z,18.5164
2024-05-09T10:29:06.439Z,18.6805
2024-05-09T10:30:14.412Z,18.5369
2024-05-09T10:31:09.701Z,18.7277
2024-05-09T10:32:11.920Z,18.6699
2024-05-09T10:33:13.008Z,18.5701
2024-05-09T10:34:13.172Z,18.6512
2024-05-09T10:35:13.146Z,18.7746
2024-05-09T10:36:13.319Z,18.7911
2024-05-09T10:37:15.695Z,18.5903
2024-05-09T10:38:15.637Z,18.2481
2024-05-09T10:39:16.014Z,18.0024
2024-05-09T10:40:25.778Z,18.0460
2024-05-09T10:41:19.112Z,17.8390
2024-05-09T10:42:21.311Z,17.4018
2024-05-09T10:43:21.336Z,17.5906
2024-05-09T10:44:21.153Z,17.5695
2024-05-09T10:45:23.487Z,17.6208
2024-05-09T10:46:25.759Z,17.6214
2024-05-09T10:47:28.199Z,17.4721
2024-05-09T10:48:29.323Z,17.5066
2024-05-09T10:49:29.267Z,17.5818
2024-05-09T10:50:34.238Z,17.5728
2024-05-09T10:51:33.226Z,16.9071
2024-05-09T10:52:35.519Z,16.4447
2024-05-09T10:53:37.859Z,16.6208
2024-05-09T10:54:37.894Z,16.3683
2024-05-09T10:55:37.881Z,16.5281
2024-05-09T10:56:37.768Z,17.0884
2024-05-09T10:57:39.986Z,17.2638
2024-05-09T10:58:42.401Z,17.7625
2024-05-09T10:59:42.371Z,18.0276
2024-05-09T11:00:44.794Z,18.2794
2024-05-09T11:01:45.018Z,18.4485
2024-05-09T11:02:45.053Z,18.6813
2024-05-09T11:03:47.572Z,18.9058
2024-05-09T11:04:47.951Z,19.1281
2024-05-09T11:05:47.997Z,19.5216
2024-05-09T11:06:48.073Z,19.4646
2024-05-09T11:07:50.570Z,19.5098
2024-05-09T11:08:50.486Z,19.8238
2024-05-09T11:09:52.903Z,19.8144
2024-05-09T11:10:53.039Z,19.5917
2024-05-09T11:11:53.226Z,19.5326
2024-05-09T11:12:53.293Z,19.5167
2024-05-09T11:13:55.546Z,19.8084
2024-05-09T11:14:57.860Z,19.5213
2024-05-09T11:16:00.179Z,19.0210
2024-05-09T11:17:00.276Z,18.9493
2024-05-09T11:18:02.782Z,18.8366
2024-05-09T11:19:04.916Z,18.7628
2024-05-09T11:20:10.773Z,18.4580
2024-05-09T11:21:06.106Z,18.3702
2024-05-09T11:22:08.570Z,18.7460
2024-05-09T11:23:08.578Z,19.6444
2024-05-09T11:24:11.482Z,21.1834
2024-05-09T11:25:11.853Z,21.7374
2024-05-09T11:26:12.590Z,21.2565
2024-05-09T11:27:12.522Z,20.8009
2024-05-09T11:28:15.046Z,20.3844
2024-05-09T11:29:17.935Z,20.1874
2024-05-09T11:30:24.190Z,20.2100
2024-05-09T11:31:18.255Z,20.0411
2024-05-09T11:32:18.302Z,19.5828
2024-05-09T11:33:19.220Z,19.5065
2024-05-09T11:34:19.373Z,19.3752
2024-05-09T11:35:19.637Z,18.9810
2024-05-09T11:36:19.555Z,18.9902
2024-05-09T11:37:19.635Z,18.7760
2024-05-09T11:38:19.584Z,18.7883
2024-05-09T11:39:21.779Z,18.9081
2024-05-09T11:40:26.035Z,18.1559
2024-05-09T11:41:25.076Z,17.3596
2024-05-09T11:42:25.206Z,17.6397
2024-05-09T11:43:25.475Z,17.9793
2024-05-09T11:44:25.341Z,18.0892
2024-05-09T11:45:27.554Z,18.2761
2024-05-09T11:46:29.703Z,18.5528
2024-05-09T11:47:32.075Z,18.6427
2024-05-09T11:48:32.331Z,18.6464
2024-05-09T11:49:32.613Z,18.8471
2024-05-09T11:50:35.498Z,18.8968
2024-05-09T11:51:33.432Z,18.8970
2024-05-09T11:52:35.665Z,19.0307
2024-05-09T11:53:37.818Z,18.3672
2024-05-09T11:54:40.114Z,17.7272
2024-05-09T11:55:42.284Z,17.7748
2024-05-09T11:56:44.513Z,17.9769
2024-05-09T11:57:46.848Z,18.0115
2024-05-09T11:58:47.136Z,18.1002
2024-05-09T11:59:50.061Z,18.0327
2024-05-09T12:00:50.044Z,18.0232
2024-05-09T12:01:50.295Z,18.0878
2024-05-09T12:02:50.318Z,18.1731
2024-05-09T12:03:52.743Z,18.0452
2024-05-09T12:04:52.814Z,18.0982
2024-05-09T12:05:55.060Z,18.2460
2024-05-09T12:06:57.326Z,18.3512
2024-05-09T12:07:59.450Z,18.4401
2024-05-09T12:09:01.622Z,18.4875
2024-05-09T12:10:06.080Z,18.7576
2024-05-09T12:11:05.753Z,19.3419
2024-05-09T12:12:08.038Z,19.4371
2024-05-09T12:13:10.400Z,19.6583
2024-05-09T12:14:12.676Z,19.7892
2024-05-09T12:15:14.996Z,19.9635
2024-05-09T12:16:17.301Z,20.0643
2024-05-09T12:17:19.609Z,19.8717
2024-05-09T12:18:21.801Z,19.8540
2024-05-09T12:19:24.049Z,19.9562
2024-05-09T12:20:34.727Z,19.7679
2024-05-09T12:21:27.285Z,19.6085
2024-05-09T12:22:29.455Z,19.5664
2024-05-09T12:23:31.641Z,19.4446
2024-05-09T12:24:33.872Z,19.4422
2024-05-09T12:25:36.970Z,19.2404
2024-05-09T12:26:39.133Z,18.9574